createdAt,value
2022-10-06T00:00:11.897Z,7.00
2022-10-06T00:01:45.918Z,6.99
2022-10-06T00:03:18.174Z,6.98
2022-10-06T00:04:50.122Z,6.96
2022-10-06T00:06:22.171Z,6.92
2022-10-06T00:07:54.981Z,6.89
2022-10-06T00:09:26.947Z,6.88
2022-10-06T00:10:59.002Z,6.86
2022-10-06T00:12:31.104Z,6.87
2022-10-06T00:14:03.222Z,6.87
2022-10-06T00:15:35.299Z,6.84
2022-10-06T00:17:07.279Z,6.81
2022-10-06T00:18:39.398Z,6.78
2022-10-06T00:20:12.059Z,6.79
2022-10-06T00:21:44.061Z,6.78
2022-10-06T00:23:18.321Z,6.77
2022-10-06T00:24:51.365Z,6.80
2022-10-06T00:26:26.277Z,6.77
2022-10-06T00:27:58.300Z,6.71
2022-10-06T00:29:30.273Z,6.65
2022-10-06T00:31:03.290Z,6.63
2022-10-06T00:32:35.493Z,6.60
2022-10-06T00:34:07.603Z,6.57
2022-10-06T00:35:39.821Z,6.53
2022-10-06T00:37:11.806Z,6.50
2022-10-06T00:38:43.821Z,6.53
2022-10-06T00:40:16.317Z,6.53
2022-10-06T00:41:48.289Z,6.55
2022-10-06T00:43:43.418Z,6.60
2022-10-06T00:45:15.784Z,6.57
2022-10-06T00:46:53.919Z,6.63
2022-10-06T00:48:27.202Z,6.62
2022-10-06T00:50:02.959Z,6.60
2022-10-06T00:51:37.128Z,6.58
2022-10-06T00:53:09.360Z,6.55
2022-10-06T00:56:14.381Z,6.53
2022-10-06T00:57:47.152Z,6.48
2022-10-06T00:59:19.799Z,6.52
2022-10-06T01:00:55.999Z,6.53
2022-10-06T01:02:34.865Z,6.52
2022-10-06T01:04:10.125Z,6.47
2022-10-06T01:05:47.025Z,6.44
2022-10-06T01:07:20.866Z,6.41
2022-10-06T01:08:53.468Z,6.38
2022-10-06T01:10:25.383Z,6.36
2022-10-06T01:12:01.154Z,6.41
2022-10-06T01:13:33.258Z,6.39
2022-10-06T01:15:05.925Z,6.38
2022-10-06T01:16:40.479Z,6.39
2022-10-06T01:18:14.614Z,6.41
2022-10-06T01:19:55.687Z,6.46
2022-10-06T01:21:35.685Z,6.47
2022-10-06T01:23:10.460Z,6.44
2022-10-06T01:24:42.777Z,6.41
2022-10-06T01:26:15.289Z,6.36
2022-10-06T01:27:54.109Z,6.35
2022-10-06T01:29:26.247Z,6.31
2022-10-06T01:30:58.561Z,6.28
2022-10-06T01:32:35.909Z,6.32
2022-10-06T01:34:08.080Z,6.25
2022-10-06T01:35:40.080Z,6.23
2022-10-06T01:37:12.096Z,6.19
2022-10-06T01:38:44.176Z,6.17
2022-10-06T01:40:16.319Z,6.12
2022-10-06T01:41:48.327Z,6.07
2022-10-06T01:43:20.511Z,6.03
2022-10-06T01:44:52.590Z,6.02
2022-10-06T01:46:24.655Z,6.03
2022-10-06T01:47:57.019Z,6.03
2022-10-06T01:49:29.016Z,6.01
2022-10-06T01:51:01.003Z,5.98
2022-10-06T01:52:32.996Z,6.01
2022-10-06T01:54:05.228Z,6.00
2022-10-06T01:55:37.589Z,5.99
2022-10-06T01:57:09.505Z,6.03
2022-10-06T01:58:41.547Z,6.04
2022-10-06T02:00:14.040Z,6.07
2022-10-06T02:01:46.092Z,6.03
2022-10-06T02:03:18.120Z,6.05
2022-10-06T02:04:50.270Z,6.09
2022-10-06T02:06:22.356Z,6.15
2022-10-06T02:07:54.380Z,6.14
2022-10-06T02:09:26.348Z,6.10
2022-10-06T02:10:58.347Z,6.04
2022-10-06T02:12:32.029Z,6.04
2022-10-06T02:14:04.120Z,6.03
2022-10-06T02:15:36.098Z,6.06
2022-10-06T02:17:08.130Z,6.09
2022-10-06T02:18:40.546Z,6.08
2022-10-06T02:20:12.505Z,6.06
2022-10-06T02:21:44.471Z,6.02
2022-10-06T02:23:16.433Z,6.02
2022-10-06T02:24:48.447Z,6.03
2022-10-06T02:26:20.626Z,6.06
2022-10-06T02:27:54.751Z,6.08
2022-10-06T02:29:26.849Z,6.04
2022-10-06T02:31:05.839Z,6.04
2022-10-06T02:32:40.000Z,6.01
2022-10-06T02:34:14.934Z,5.96
2022-10-06T02:35:47.428Z,5.94
2022-10-06T02:37:19.405Z,5.92
2022-10-06T02:38:51.360Z,5.86
2022-10-06T02:40:23.364Z,5.87
2022-10-06T02:41:55.945Z,5.82
2022-10-06T02:43:31.981Z,5.84
2022-10-06T02:45:07.211Z,5.91
2022-10-06T02:46:39.272Z,5.89
2022-10-06T02:48:11.896Z,5.90
2022-10-06T02:49:43.998Z,5.91
2022-10-06T02:51:18.190Z,6.00
2022-10-06T02:52:50.136Z,5.98
2022-10-06T02:54:22.157Z,5.98
2022-10-06T02:56:04.952Z,5.98
2022-10-06T02:57:36.935Z,5.88
2022-10-06T02:59:08.918Z,5.81
2022-10-06T03:00:40.969Z,5.82
2022-10-06T03:02:13.074Z,5.82
2022-10-06T03:05:17.915Z,5.80
2022-10-06T03:06:50.176Z,5.82
2022-10-06T03:08:22.099Z,5.83
2022-10-06T03:09:54.115Z,5.84
2022-10-06T03:11:31.584Z,5.89
2022-10-06T03:13:03.606Z,5.91
2022-10-06T03:14:35.648Z,5.93
2022-10-06T03:16:22.796Z,5.94
2022-10-06T03:17:55.954Z,5.95
2022-10-06T03:19:28.031Z,5.91
2022-10-06T03:21:01.767Z,5.88
2022-10-06T03:22:33.904Z,5.90
2022-10-06T03:24:06.161Z,5.86
2022-10-06T03:25:38.073Z,5.91
2022-10-06T03:27:10.097Z,5.88
2022-10-06T03:28:45.273Z,5.93
2022-10-06T03:30:18.426Z,5.96
2022-10-06T03:31:50.438Z,5.99
2022-10-06T03:33:22.589Z,5.95
2022-10-06T03:34:54.637Z,5.95
2022-10-06T03:36:29.755Z,5.97
2022-10-06T03:39:34.654Z,5.98
2022-10-06T03:41:08.630Z,6.05
2022-10-06T03:42:40.665Z,6.01
2022-10-06T03:44:12.704Z,5.98
2022-10-06T03:45:44.692Z,5.95
2022-10-06T03:47:17.605Z,5.92
2022-10-06T03:48:51.275Z,5.95
2022-10-06T03:50:23.098Z,5.97
2022-10-06T03:51:55.083Z,5.90
2022-10-06T03:53:30.371Z,5.88
2022-10-06T03:55:02.386Z,5.86
2022-10-06T03:56:36.398Z,5.83
2022-10-06T03:58:08.377Z,5.80
2022-10-06T03:59:40.332Z,5.79
2022-10-06T04:01:25.006Z,5.82
2022-10-06T04:02:58.005Z,5.80
2022-10-06T04:04:29.953Z,5.81
2022-10-06T04:06:04.309Z,5.78
2022-10-06T04:07:36.469Z,5.70
2022-10-06T04:09:15.029Z,5.70
2022-10-06T04:10:48.007Z,5.66
2022-10-06T04:12:20.008Z,5.63
2022-10-06T04:14:03.779Z,5.63
2022-10-06T04:15:35.798Z,5.62
2022-10-06T04:17:07.791Z,5.60
2022-10-06T04:18:40.370Z,5.60
2022-10-06T04:20:12.452Z,5.59
2022-10-06T04:21:45.901Z,5.61
2022-10-06T04:23:17.918Z,5.63
2022-10-06T04:24:50.865Z,5.60
2022-10-06T04:26:24.503Z,5.58
2022-10-06T04:27:57.823Z,5.55
2022-10-06T04:29:30.197Z,5.56
2022-10-06T04:31:02.387Z,5.58
2022-10-06T04:32:34.445Z,5.58
2022-10-06T04:34:07.471Z,5.58
2022-10-06T04:35:39.494Z,5.54
2022-10-06T04:37:11.859Z,5.55
2022-10-06T04:38:44.378Z,5.50
2022-10-06T04:40:16.443Z,5.49
2022-10-06T04:41:48.490Z,5.46
2022-10-06T04:43:20.590Z,5.49
2022-10-06T04:44:52.501Z,5.47
2022-10-06T04:46:42.005Z,5.43
2022-10-06T04:48:15.132Z,5.46
2022-10-06T04:49:47.603Z,5.51
2022-10-06T04:51:20.924Z,5.51
2022-10-06T04:52:53.725Z,5.52
2022-10-06T04:54:28.874Z,5.53
2022-10-06T04:56:21.752Z,5.62
2022-10-06T04:57:55.792Z,5.62
2022-10-06T04:59:47.680Z,5.62
2022-10-06T05:01:21.915Z,5.65
2022-10-06T05:02:56.081Z,5.65
2022-10-06T05:04:28.108Z,5.68
2022-10-06T05:06:23.634Z,5.79
2022-10-06T05:07:55.819Z,5.82
2022-10-06T05:09:27.882Z,5.87
2022-10-06T05:11:01.781Z,5.96
2022-10-06T05:12:33.901Z,5.99
2022-10-06T05:14:06.200Z,6.06
2022-10-06T05:15:38.192Z,6.10
2022-10-06T05:17:10.194Z,6.17
2022-10-06T05:18:42.653Z,6.25
2022-10-06T05:20:14.749Z,6.27
2022-10-06T05:21:46.729Z,6.40
2022-10-06T05:23:19.092Z,6.44
2022-10-06T05:24:54.190Z,6.55
2022-10-06T05:26:29.189Z,6.66
2022-10-06T05:28:01.316Z,6.73
2022-10-06T05:29:34.923Z,6.83
2022-10-06T05:31:08.371Z,6.96
2022-10-06T05:32:40.561Z,7.00
2022-10-06T05:34:13.290Z,7.08
2022-10-06T05:35:53.740Z,7.21
2022-10-06T05:37:26.006Z,7.23
2022-10-06T05:38:58.807Z,7.34
2022-10-06T05:40:30.793Z,7.40
2022-10-06T05:42:02.783Z,7.48
2022-10-06T05:43:35.302Z,7.58
2022-10-06T05:45:10.642Z,7.68
2022-10-06T05:46:42.688Z,7.78
2022-10-06T05:48:14.690Z,7.86
2022-10-06T05:49:46.748Z,7.96
2022-10-06T05:51:20.301Z,8.04
2022-10-06T05:52:55.170Z,8.13
2022-10-06T05:54:27.238Z,8.19
2022-10-06T05:56:05.297Z,8.31
2022-10-06T05:57:37.392Z,8.39
2022-10-06T05:59:09.567Z,8.48
2022-10-06T06:00:41.917Z,8.55
2022-10-06T06:02:14.321Z,8.64
2022-10-06T06:03:54.736Z,8.78
2022-10-06T06:05:26.903Z,8.86
2022-10-06T06:06:59.036Z,8.94
2022-10-06T06:08:31.405Z,9.05
2022-10-06T06:10:04.165Z,9.15
2022-10-06T06:11:38.776Z,9.24
2022-10-06T06:13:11.192Z,9.32
2022-10-06T06:15:01.713Z,9.43
2022-10-06T06:16:34.226Z,9.55
2022-10-06T06:18:06.560Z,9.66
2022-10-06T06:19:38.700Z,9.77
2022-10-06T06:21:11.412Z,9.89
2022-10-06T06:22:43.456Z,9.97
2022-10-06T06:24:15.605Z,10.08
2022-10-06T06:26:02.507Z,10.25
2022-10-06T06:27:35.971Z,10.31
2022-10-06T06:29:08.189Z,10.41
2022-10-06T06:30:40.546Z,10.51
2022-10-06T06:32:12.864Z,10.62
2022-10-06T06:33:45.401Z,10.70
2022-10-06T06:35:17.520Z,10.81
2022-10-06T06:36:54.057Z,10.91
2022-10-06T06:38:26.290Z,11.00
2022-10-06T06:40:01.590Z,11.12
2022-10-06T06:41:38.088Z,11.25
2022-10-06T06:43:12.878Z,11.34
2022-10-06T06:44:45.195Z,11.42
2022-10-06T06:46:19.235Z,11.54
2022-10-06T06:47:51.537Z,11.62
2022-10-06T06:49:25.900Z,11.69
2022-10-06T06:50:58.894Z,11.81
2022-10-06T06:52:31.545Z,11.88
2022-10-06T06:54:05.104Z,11.99
2022-10-06T06:55:37.042Z,12.11
2022-10-06T06:57:11.524Z,12.15
2022-10-06T06:58:48.466Z,12.28
2022-10-06T07:00:23.816Z,12.33
2022-10-06T07:01:57.842Z,12.41
2022-10-06T07:03:56.157Z,12.49
2022-10-06T07:05:22.954Z,12.61
2022-10-06T07:06:58.663Z,12.67
2022-10-06T07:08:32.652Z,12.73
2022-10-06T07:10:05.534Z,12.78
2022-10-06T07:11:39.750Z,12.87
2022-10-06T07:13:17.426Z,12.96
2022-10-06T07:15:08.172Z,12.97
2022-10-06T07:16:58.537Z,13.07
2022-10-06T07:18:49.145Z,13.13
2022-10-06T07:20:40.157Z,13.20
2022-10-06T07:22:30.852Z,13.27
2022-10-06T07:24:21.417Z,13.32
2022-10-06T07:25:53.750Z,13.39
2022-10-06T07:27:26.300Z,13.43
2022-10-06T07:29:01.513Z,13.48
2022-10-06T07:30:37.189Z,13.53
2022-10-06T07:32:12.611Z,13.56
2022-10-06T07:33:44.905Z,13.62
2022-10-06T07:35:20.576Z,13.70
2022-10-06T07:36:54.442Z,13.76
2022-10-06T07:38:30.838Z,13.81
2022-10-06T07:41:35.678Z,13.96
2022-10-06T07:43:07.667Z,14.01
2022-10-06T07:44:40.240Z,14.08
2022-10-06T07:46:12.684Z,14.14
2022-10-06T07:47:44.700Z,14.20
2022-10-06T07:49:17.718Z,14.26
2022-10-06T07:50:52.141Z,14.36
2022-10-06T07:52:25.277Z,14.38
2022-10-06T07:53:57.452Z,14.43
2022-10-06T07:55:29.754Z,14.53
2022-10-06T07:57:02.013Z,14.58
2022-10-06T07:58:35.863Z,14.66
2022-10-06T08:00:08.542Z,14.71
2022-10-06T08:01:40.793Z,14.77
2022-10-06T08:03:18.140Z,14.84
2022-10-06T08:04:50.825Z,14.91
2022-10-06T08:06:24.056Z,14.97
2022-10-06T08:07:58.883Z,15.04
2022-10-06T08:09:31.162Z,15.14
2022-10-06T08:11:04.514Z,15.19
2022-10-06T08:12:40.917Z,15.30
2022-10-06T08:14:15.378Z,15.35
2022-10-06T08:15:50.417Z,15.44
2022-10-06T08:17:22.823Z,15.48
2022-10-06T08:18:55.368Z,15.55
2022-10-06T08:20:27.935Z,15.57
2022-10-06T08:22:04.402Z,15.65
2022-10-06T08:23:40.981Z,15.72
2022-10-06T08:25:13.877Z,15.77
2022-10-06T08:26:46.130Z,15.84
2022-10-06T08:28:18.533Z,15.87
2022-10-06T08:29:51.149Z,15.94
2022-10-06T08:31:24.306Z,15.99
2022-10-06T08:32:57.774Z,16.05
2022-10-06T08:34:29.714Z,16.14
2022-10-06T08:36:18.132Z,16.15
2022-10-06T08:37:50.621Z,16.15
2022-10-06T08:39:23.013Z,16.22
2022-10-06T08:40:55.706Z,16.26
2022-10-06T08:42:34.982Z,16.34
2022-10-06T08:44:16.198Z,16.38
2022-10-06T08:45:48.323Z,16.39
2022-10-06T08:47:23.071Z,16.46
2022-10-06T08:48:58.860Z,16.49
2022-10-06T08:50:34.028Z,16.57
2022-10-06T08:52:57.176Z,16.67
2022-10-06T08:56:27.463Z,16.69
2022-10-06T08:58:31.756Z,16.76
2022-10-06T09:00:14.281Z,16.77
2022-10-06T09:01:51.500Z,16.83
2022-10-06T09:03:29.527Z,16.87
2022-10-06T09:05:05.030Z,16.89
2022-10-06T09:07:06.630Z,16.96
2022-10-06T09:08:51.137Z,16.96
2022-10-06T09:10:45.234Z,17.08
2022-10-06T09:12:35.214Z,17.13
2022-10-06T09:14:18.947Z,17.15
2022-10-06T09:15:56.295Z,17.25
2022-10-06T09:17:32.884Z,17.32
2022-10-06T09:19:14.464Z,17.45
2022-10-06T09:20:58.041Z,17.50
2022-10-06T09:22:32.708Z,17.54
2022-10-06T09:24:21.043Z,17.62
2022-10-06T09:25:53.481Z,17.65
2022-10-06T09:27:36.955Z,17.77
2022-10-06T09:29:09.050Z,17.76
2022-10-06T09:30:43.268Z,17.83
2022-10-06T09:32:17.061Z,17.88
2022-10-06T09:33:52.221Z,17.93
2022-10-06T09:35:26.950Z,17.97
2022-10-06T09:37:04.420Z,18.03
2022-10-06T09:39:06.978Z,18.07
2022-10-06T09:40:51.970Z,18.09
2022-10-06T09:42:35.972Z,18.11
2022-10-06T09:44:25.563Z,18.18
2022-10-06T09:46:31.723Z,18.27
2022-10-06T09:48:24.717Z,18.36
2022-10-06T09:50:12.470Z,18.43
2022-10-06T09:52:10.765Z,18.48
2022-10-06T09:54:00.868Z,18.51
2022-10-06T09:55:39.197Z,18.57
2022-10-06T09:57:18.350Z,18.63
2022-10-06T09:58:56.734Z,18.67
2022-10-06T10:00:30.056Z,18.68
2022-10-06T10:02:02.209Z,18.75
2022-10-06T10:04:01.913Z,18.77
2022-10-06T10:05:40.232Z,18.80
2022-10-06T10:07:25.358Z,18.81
2022-10-06T10:09:22.969Z,18.90
2022-10-06T10:11:38.126Z,18.97
2022-10-06T10:13:20.954Z,19.07
2022-10-06T10:14:57.302Z,19.06
2022-10-06T10:16:35.067Z,19.07
2022-10-06T10:18:13.771Z,19.14
2022-10-06T10:19:53.320Z,19.17
2022-10-06T10:21:30.172Z,19.23
2022-10-06T10:23:33.966Z,19.28
2022-10-06T10:26:45.358Z,19.40
2022-10-06T10:28:23.384Z,19.41
2022-10-06T10:30:03.246Z,19.47
2022-10-06T10:31:50.763Z,19.50
2022-10-06T10:34:11.897Z,19.51
2022-10-06T10:35:53.485Z,19.53
2022-10-06T10:37:25.633Z,19.47
2022-10-06T10:38:58.714Z,19.50
2022-10-06T10:40:33.476Z,19.56
2022-10-06T10:42:14.411Z,19.57
2022-10-06T10:43:51.749Z,19.58
2022-10-06T10:45:34.731Z,19.64
2022-10-06T10:47:23.779Z,19.68
2022-10-06T10:49:01.859Z,19.63
2022-10-06T10:50:43.306Z,19.70
2022-10-06T10:52:22.941Z,19.75
2022-10-06T10:55:36.775Z,19.81
2022-10-06T10:57:16.754Z,19.84
2022-10-06T10:58:57.594Z,19.89
2022-10-06T11:00:32.594Z,19.91
2022-10-06T11:02:19.708Z,20.00
2022-10-06T11:03:57.376Z,19.98
2022-10-06T11:05:54.956Z,20.05
2022-10-06T11:07:57.629Z,20.06
2022-10-06T11:09:41.841Z,20.05
2022-10-06T11:11:41.533Z,20.06
2022-10-06T11:13:20.004Z,20.04
2022-10-06T11:15:20.775Z,20.09
2022-10-06T11:17:07.567Z,20.09
2022-10-06T11:18:49.563Z,20.13
2022-10-06T11:20:48.863Z,20.20
2022-10-06T11:22:36.813Z,20.27
2022-10-06T11:24:27.676Z,20.32
2022-10-06T11:26:22.051Z,20.33
2022-10-06T11:28:25.323Z,20.31
2022-10-06T11:30:19.874Z,20.31
2022-10-06T11:32:07.109Z,20.36
2022-10-06T11:33:53.481Z,20.41
2022-10-06T11:35:27.822Z,20.49
2022-10-06T11:37:09.787Z,20.50
2022-10-06T11:38:50.299Z,20.49
2022-10-06T11:40:51.391Z,20.57
2022-10-06T11:42:38.108Z,20.61
2022-10-06T11:44:20.447Z,20.51
2022-10-06T11:46:01.411Z,20.44
2022-10-06T11:47:59.616Z,20.47
2022-10-06T11:49:45.575Z,20.45
2022-10-06T11:51:17.843Z,20.41
2022-10-06T11:52:53.305Z,20.46
2022-10-06T11:54:40.881Z,20.48
2022-10-06T11:56:19.448Z,20.45
2022-10-06T11:58:37.508Z,20.45
2022-10-06T12:00:05.217Z,20.41
2022-10-06T12:01:39.499Z,20.45
2022-10-06T12:03:34.387Z,20.52
2022-10-06T12:05:52.375Z,20.55
2022-10-06T12:07:08.074Z,20.54
2022-10-06T12:08:42.106Z,20.54
2022-10-06T12:10:29.503Z,20.56
2022-10-06T12:12:19.662Z,20.52
2022-10-06T12:18:37.667Z,20.56
2022-10-06T12:20:30.313Z,20.46
2022-10-06T12:22:17.707Z,20.46
2022-10-06T12:23:58.813Z,20.46
2022-10-06T12:25:43.031Z,20.40
2022-10-06T12:27:15.361Z,20.36
2022-10-06T12:29:18.823Z,20.45
2022-10-06T12:31:06.238Z,20.43
2022-10-06T12:32:58.711Z,20.47
2022-10-06T12:35:01.853Z,20.46
2022-10-06T12:36:36.768Z,20.48
2022-10-06T12:38:42.049Z,20.49
2022-10-06T12:40:38.826Z,20.53
2022-10-06T12:42:25.874Z,20.52
2022-10-06T12:43:58.383Z,20.43
2022-10-06T12:45:32.147Z,20.51
2022-10-06T12:47:24.703Z,20.54
2022-10-06T12:49:15.490Z,20.52
2022-10-06T12:50:49.236Z,20.53
2022-10-06T12:52:44.989Z,20.52
2022-10-06T12:54:43.631Z,20.49
2022-10-06T12:56:36.153Z,20.43
2022-10-06T12:58:29.164Z,20.46
2022-10-06T13:00:01.484Z,20.41
2022-10-06T13:01:33.846Z,20.41
2022-10-06T13:03:09.244Z,20.43
2022-10-06T13:04:49.741Z,20.44
2022-10-06T13:06:26.004Z,20.43
2022-10-06T13:08:25.070Z,20.47
2022-10-06T13:10:15.800Z,20.50
2022-10-06T13:11:49.583Z,20.47
2022-10-06T13:13:24.722Z,20.51
2022-10-06T13:15:34.922Z,20.54
2022-10-06T13:17:09.806Z,20.52
2022-10-06T13:18:42.464Z,20.52
2022-10-06T13:20:41.489Z,20.55
2022-10-06T13:22:15.335Z,20.48
2022-10-06T13:23:48.427Z,20.48
2022-10-06T13:25:20.508Z,20.45
2022-10-06T13:26:53.691Z,20.46
2022-10-06T13:28:37.323Z,20.46
2022-10-06T13:30:27.663Z,20.49
2022-10-06T13:31:59.928Z,20.43
2022-10-06T14:29:34.639Z,20.04
2022-10-06T14:31:11.979Z,20.02
2022-10-06T14:32:46.457Z,20.02
2022-10-06T14:34:21.460Z,20.00
2022-10-06T14:35:54.140Z,20.01
2022-10-06T14:37:26.495Z,20.01
2022-10-06T14:38:59.991Z,20.01
2022-10-06T14:40:32.920Z,19.96
2022-10-06T14:42:07.933Z,19.97
2022-10-06T14:43:42.102Z,19.97
2022-10-06T14:45:14.687Z,19.95
2022-10-06T14:46:50.686Z,19.99
2022-10-06T14:48:23.112Z,19.94
2022-10-06T14:49:55.399Z,19.92
2022-10-06T14:51:30.985Z,19.90
2022-10-06T14:53:06.815Z,19.88
2022-10-06T14:54:39.287Z,19.85
2022-10-06T14:57:43.495Z,19.81
2022-10-06T14:59:18.409Z,19.76
2022-10-06T15:00:50.814Z,19.76
2022-10-06T15:02:23.572Z,19.68
2022-10-06T15:04:01.049Z,19.70
2022-10-06T15:05:55.622Z,19.65
2022-10-06T15:07:46.086Z,19.56
2022-10-06T15:09:18.654Z,19.51
2022-10-06T15:10:54.403Z,19.48
2022-10-06T15:12:29.467Z,19.39
2022-10-06T15:14:05.872Z,19.30
2022-10-06T15:15:38.619Z,19.23
2022-10-06T15:17:10.984Z,19.15
2022-10-06T15:18:43.461Z,19.08
2022-10-06T15:20:15.910Z,18.99
2022-10-06T15:21:48.296Z,18.93
2022-10-06T15:23:20.709Z,18.86
2022-10-06T15:24:53.040Z,18.77
2022-10-06T15:26:44.982Z,18.71
2022-10-06T15:28:35.510Z,18.58
2022-10-06T15:30:08.511Z,18.51
2022-10-06T15:31:43.297Z,18.48
2022-10-06T15:33:17.629Z,18.40
2022-10-06T15:34:51.693Z,18.31
2022-10-06T15:36:25.165Z,18.20
2022-10-06T15:37:57.577Z,18.11
2022-10-06T15:39:32.058Z,18.04
2022-10-06T15:41:05.112Z,17.94
2022-10-06T15:42:37.441Z,17.87
2022-10-06T15:44:10.652Z,17.81
2022-10-06T15:45:54.350Z,17.78
2022-10-06T15:47:27.714Z,17.67
2022-10-06T15:49:01.622Z,17.60
2022-10-06T15:50:34.024Z,17.45
2022-10-06T15:52:07.042Z,17.34
2022-10-06T15:53:41.558Z,17.28
2022-10-06T15:55:14.115Z,17.13
2022-10-06T15:56:48.006Z,17.01
2022-10-06T15:58:21.848Z,16.86
2022-10-06T15:59:54.331Z,16.70
2022-10-06T16:01:33.057Z,16.56
2022-10-06T16:03:21.344Z,16.37
2022-10-06T16:05:16.439Z,16.24
2022-10-06T16:06:54.988Z,16.11
2022-10-06T16:08:26.992Z,16.03
2022-10-06T16:09:59.532Z,15.97
2022-10-06T16:11:31.545Z,15.95
2022-10-06T16:13:06.196Z,15.90
2022-10-06T16:14:38.530Z,15.84
2022-10-06T16:16:10.978Z,15.74
2022-10-06T16:17:43.114Z,15.63
2022-10-06T16:19:16.410Z,15.57
2022-10-06T16:20:55.499Z,15.52
2022-10-06T16:22:27.848Z,15.44
2022-10-06T16:24:00.831Z,15.36
2022-10-06T16:25:33.144Z,15.29
2022-10-06T16:27:06.293Z,15.22
2022-10-06T16:28:38.730Z,15.14
2022-10-06T16:30:11.527Z,15.07
2022-10-06T16:31:44.211Z,15.01
2022-10-06T16:33:16.679Z,14.93
2022-10-06T16:34:50.978Z,14.88
2022-10-06T16:36:23.071Z,14.81
2022-10-06T16:37:55.065Z,14.72
2022-10-06T16:39:27.071Z,14.65
2022-10-06T16:41:04.421Z,14.61
2022-10-06T16:42:36.768Z,14.54
2022-10-06T16:44:09.332Z,14.46
2022-10-06T16:45:41.684Z,14.36
2022-10-06T16:47:13.931Z,14.30
2022-10-06T16:48:47.185Z,14.21
2022-10-06T16:50:19.312Z,14.08
2022-10-06T16:51:51.527Z,13.99
2022-10-06T16:53:23.768Z,13.93
2022-10-06T16:54:56.665Z,13.85
2022-10-06T16:56:30.875Z,13.83
2022-10-06T16:58:02.934Z,13.73
2022-10-06T16:59:36.610Z,13.68
2022-10-06T17:01:10.217Z,13.64
2022-10-06T17:02:42.267Z,13.59
2022-10-06T17:04:26.304Z,13.59
2022-10-06T17:06:24.603Z,13.55
2022-10-06T17:07:59.147Z,13.48
2022-10-06T17:09:31.621Z,13.45
2022-10-06T17:11:15.499Z,13.43
2022-10-06T17:12:47.427Z,13.37
2022-10-06T17:14:20.436Z,13.26
2022-10-06T17:16:05.068Z,13.17
2022-10-06T17:17:37.492Z,13.04
2022-10-06T17:19:12.177Z,13.00
2022-10-06T17:20:54.211Z,12.93
2022-10-06T17:22:26.777Z,12.85
2022-10-06T17:24:00.908Z,12.84
2022-10-06T17:25:34.335Z,12.80
2022-10-06T17:27:06.666Z,12.78
2022-10-06T17:28:39.231Z,12.76
2022-10-06T17:31:46.934Z,12.72
2022-10-06T17:33:19.727Z,12.64
2022-10-06T17:34:52.546Z,12.57
2022-10-06T17:36:25.913Z,12.56
2022-10-06T17:37:59.713Z,12.51
2022-10-06T17:39:32.536Z,12.50
2022-10-06T17:41:08.040Z,12.45
2022-10-06T17:42:42.117Z,12.41
2022-10-06T17:44:23.639Z,12.39
2022-10-06T17:45:56.522Z,12.35
2022-10-06T17:47:29.676Z,12.32
2022-10-06T17:49:04.599Z,12.27
2022-10-06T17:50:37.005Z,12.18
2022-10-06T17:52:09.759Z,12.14
2022-10-06T17:53:49.817Z,12.10
2022-10-06T17:55:23.066Z,12.01
2022-10-06T17:56:58.337Z,11.94
2022-10-06T17:58:30.494Z,11.83
2022-10-06T18:00:02.781Z,11.73
2022-10-06T18:01:36.257Z,11.70
2022-10-06T18:03:09.372Z,11.61
2022-10-06T18:04:41.361Z,11.59
2022-10-06T18:06:16.149Z,11.62
2022-10-06T18:07:48.207Z,11.59
2022-10-06T18:09:20.740Z,11.55
2022-10-06T18:11:11.473Z,11.50
2022-10-06T18:12:43.805Z,11.46
2022-10-06T18:14:18.422Z,11.44
2022-10-06T18:15:51.259Z,11.39
2022-10-06T18:17:24.521Z,11.32
2022-10-06T18:18:56.766Z,11.26
2022-10-06T18:20:31.888Z,11.24
2022-10-06T18:22:10.834Z,11.23
2022-10-06T18:23:43.799Z,11.16
2022-10-06T18:25:17.230Z,11.17
2022-10-06T18:26:50.951Z,11.18
2022-10-06T18:28:23.045Z,11.12
2022-10-06T18:29:55.113Z,11.03
2022-10-06T18:31:27.221Z,10.99
2022-10-06T18:36:43.774Z,10.79
2022-10-06T18:38:16.421Z,10.78
2022-10-06T18:39:48.606Z,10.72
2022-10-06T18:41:20.809Z,10.70
2022-10-06T18:42:52.792Z,10.67
2022-10-06T18:44:47.691Z,10.63
2022-10-06T18:46:38.767Z,10.59
2022-10-06T18:48:29.444Z,10.53
2022-10-06T18:50:01.603Z,10.46
2022-10-06T18:51:38.034Z,10.42
2022-10-06T18:53:10.111Z,10.40
2022-10-06T18:54:44.825Z,10.40
2022-10-06T18:56:20.050Z,10.41
2022-10-06T18:57:52.051Z,10.36
2022-10-06T18:59:31.509Z,10.37
2022-10-06T19:01:07.222Z,10.35
2022-10-06T19:02:39.482Z,10.27
2022-10-06T19:04:15.410Z,10.25
2022-10-06T19:05:53.536Z,10.21
2022-10-06T19:07:31.074Z,10.16
2022-10-06T19:09:05.116Z,10.11
2022-10-06T19:10:57.233Z,10.08
2022-10-06T19:12:29.391Z,10.10
2022-10-06T19:14:01.457Z,10.10
2022-10-06T19:15:33.558Z,10.10
2022-10-06T19:17:09.559Z,10.13
2022-10-06T19:18:42.318Z,10.11
2022-10-06T19:20:14.449Z,10.08
2022-10-06T19:21:59.792Z,10.06
2022-10-06T19:23:36.202Z,10.00
2022-10-06T19:25:08.461Z,9.92
2022-10-06T19:26:45.135Z,9.88
2022-10-06T19:28:18.086Z,9.84
2022-10-06T19:29:55.980Z,9.82
2022-10-06T19:31:29.084Z,9.73
2022-10-06T19:33:01.333Z,9.70
2022-10-06T19:34:37.668Z,9.73
2022-10-06T19:36:12.755Z,9.71
2022-10-06T19:37:45.167Z,9.69
2022-10-06T19:39:18.206Z,9.66
2022-10-06T19:40:50.565Z,9.65
2022-10-06T19:42:41.361Z,9.63
2022-10-06T19:44:13.415Z,9.70
2022-10-06T19:45:56.575Z,9.75
2022-10-06T19:47:29.141Z,9.71
2022-10-06T19:49:05.955Z,9.73
2022-10-06T19:50:41.492Z,9.76
2022-10-06T19:52:14.368Z,9.71
2022-10-06T19:53:52.860Z,9.66
2022-10-06T19:55:25.126Z,9.63
2022-10-06T19:58:32.683Z,9.60
2022-10-06T20:00:06.345Z,9.58
2022-10-06T20:01:38.489Z,9.52
2022-10-06T20:03:10.612Z,9.47
2022-10-06T20:04:42.786Z,9.45
2022-10-06T20:06:15.378Z,9.46
2022-10-06T20:07:47.903Z,9.46
2022-10-06T20:09:22.870Z,9.45
2022-10-06T20:11:02.502Z,9.45
2022-10-06T20:12:35.443Z,9.41
2022-10-06T20:14:11.193Z,9.42
2022-10-06T20:15:46.356Z,9.41
2022-10-06T20:17:18.426Z,9.34
2022-10-06T20:18:50.891Z,9.30
2022-10-06T20:20:22.840Z,9.27
2022-10-06T20:21:55.077Z,9.28
2022-10-06T20:23:27.892Z,9.24
2022-10-06T20:25:02.110Z,9.22
2022-10-06T20:26:38.689Z,9.22
2022-10-06T20:28:10.948Z,9.17
2022-10-06T20:29:43.009Z,9.14
2022-10-06T20:31:22.909Z,9.16
2022-10-06T20:32:55.174Z,9.08
2022-10-06T20:34:32.904Z,9.07
2022-10-06T20:36:05.297Z,9.02
2022-10-06T20:37:38.646Z,9.00
2022-10-06T20:39:32.906Z,9.00
2022-10-06T20:41:05.069Z,8.94
2022-10-06T20:42:37.292Z,8.93
2022-10-06T20:44:09.557Z,8.91
2022-10-06T20:45:41.686Z,8.93
2022-10-06T20:47:13.910Z,8.88
2022-10-06T20:48:50.387Z,8.94
2022-10-06T20:50:22.446Z,8.93
2022-10-06T20:51:54.544Z,8.93
2022-10-06T20:53:32.800Z,8.94
2022-10-06T20:55:05.784Z,8.87
2022-10-06T20:56:37.816Z,8.86
2022-10-06T20:58:10.035Z,8.90
2022-10-06T20:59:42.123Z,8.91
2022-10-06T21:01:16.464Z,8.91
2022-10-06T21:02:48.686Z,8.93
2022-10-06T21:04:21.174Z,8.97
2022-10-06T21:05:53.232Z,8.98
2022-10-06T21:07:25.244Z,8.97
2022-10-06T21:08:58.572Z,8.93
2022-10-06T21:10:30.637Z,8.91
2022-10-06T21:12:05.458Z,8.84
2022-10-06T21:13:37.597Z,8.84
2022-10-06T21:15:10.174Z,8.79
2022-10-06T21:16:44.205Z,8.78
2022-10-06T21:18:17.197Z,8.73
2022-10-06T21:19:49.218Z,8.67
2022-10-06T21:21:21.373Z,8.61
2022-10-06T21:22:53.358Z,8.61
2022-10-06T21:24:25.326Z,8.56
2022-10-06T21:25:57.618Z,8.55
2022-10-06T21:27:30.100Z,8.46
2022-10-06T21:29:02.102Z,8.44
2022-10-06T21:30:36.141Z,8.44
2022-10-06T21:32:10.246Z,8.41
2022-10-06T21:33:43.539Z,8.37
2022-10-06T21:35:18.469Z,8.31
2022-10-06T21:36:50.882Z,8.28
2022-10-06T21:38:22.873Z,8.26
2022-10-06T21:39:58.732Z,8.25
2022-10-06T21:41:41.269Z,8.29
2022-10-06T21:43:13.337Z,8.26
2022-10-06T21:44:45.368Z,8.31
2022-10-06T21:46:28.055Z,8.30
2022-10-06T21:48:00.896Z,8.26
2022-10-06T21:49:32.870Z,8.23
2022-10-06T21:51:04.923Z,8.22
2022-10-06T21:52:36.897Z,8.27
2022-10-06T21:54:10.736Z,8.24
2022-10-06T21:55:42.856Z,8.25
2022-10-06T21:57:15.722Z,8.21
2022-10-06T21:58:51.707Z,8.22
2022-10-06T22:00:24.241Z,8.23
2022-10-06T22:01:57.085Z,8.22
2022-10-06T22:03:29.144Z,8.19
2022-10-06T22:05:01.173Z,8.14
2022-10-06T22:06:35.300Z,8.15
2022-10-06T22:08:07.322Z,8.10
2022-10-06T22:09:39.342Z,8.06
2022-10-06T22:11:17.425Z,8.06
2022-10-06T22:12:49.439Z,7.99
2022-10-06T22:14:21.509Z,7.93
2022-10-06T22:15:53.489Z,7.94
2022-10-06T22:17:28.482Z,7.97
2022-10-06T22:19:03.165Z,7.94
2022-10-06T22:20:35.749Z,7.91
2022-10-06T22:22:07.682Z,7.91